sensor_id;sensor_type;location;lat;lon;timestamp;temperature;humidity
49413;DHT22;35493;50.276;9.372;2022-12-18T00:01:01;-3271.00;79.10
49413;DHT22;35493;50.276;9.372;2022-12-18T00:03:38;-3271.00;79.20
49413;DHT22;35493;50.276;9.372;2022-12-18T00:06:13;-3271.00;79.10
49413;DHT22;35493;50.276;9.372;2022-12-18T00:08:45;-3270.90;79.20
49413;DHT22;35493;50.276;9.372;2022-12-18T00:11:15;-3271.00;79.20
49413;DHT22;35493;50.276;9.372;2022-12-18T00:13:42;-3271.00;79.20
49413;DHT22;35493;50.276;9.372;2022-12-18T00:16:12;-3271.00;79.10
49413;DHT22;35493;50.276;9.372;2022-12-18T00:18:40;-3270.90;79.30
49413;DHT22;35493;50.276;9.372;2022-12-18T00:21:09;-3270.90;79.50
49413;DHT22;35493;50.276;9.372;2022-12-18T00:23:38;-3270.90;79.80
49413;DHT22;35493;50.276;9.372;2022-12-18T00:26:14;-3270.90;79.70
49413;DHT22;35493;50.276;9.372;2022-12-18T00:28:43;-3271.00;79.50
49413;DHT22;35493;50.276;9.372;2022-12-18T00:31:12;-3271.00;79.40
49413;DHT22;35493;50.276;9.372;2022-12-18T00:33:39;-3270.90;79.40
49413;DHT22;35493;50.276;9.372;2022-12-18T00:36:11;-3270.90;79.50
49413;DHT22;35493;50.276;9.372;2022-12-18T00:38:38;-3270.90;79.30
49413;DHT22;35493;50.276;9.372;2022-12-18T00:41:08;-3270.90;79.20
49413;DHT22;35493;50.276;9.372;2022-12-18T00:43:36;-3270.80;79.20
49413;DHT22;35493;50.276;9.372;2022-12-18T00:46:03;-3270.80;79.00
49413;DHT22;35493;50.276;9.372;2022-12-18T00:48:31;-3270.70;79.20
49413;DHT22;35493;50.276;9.372;2022-12-18T00:50:58;-3270.70;79.20
49413;DHT22;35493;50.276;9.372;2022-12-18T00:53:25;-3270.70;79.10
49413;DHT22;35493;50.276;9.372;2022-12-18T00:55:52;-3270.70;79.10
49413;DHT22;35493;50.276;9.372;2022-12-18T00:58:21;-3270.70;79.10
49413;DHT22;35493;50.276;9.372;2022-12-18T01:00:47;-3270.80;79.00
49413;DHT22;35493;50.276;9.372;2022-12-18T01:03:14;-3270.80;78.90
49413;DHT22;35493;50.276;9.372;2022-12-18T01:05:43;-3270.80;78.80
49413;DHT22;35493;50.276;9.372;2022-12-18T01:08:11;-3270.70;78.90
49413;DHT22;35493;50.276;9.372;2022-12-18T01:10:40;-3270.70;78.90
49413;DHT22;35493;50.276;9.372;2022-12-18T01:13:07;-3270.70;78.90
49413;DHT22;35493;50.276;9.372;2022-12-18T01:15:35;-3270.70;79.00
49413;DHT22;35493;50.276;9.372;2022-12-18T01:18:02;-3270.70;78.90
49413;DHT22;35493;50.276;9.372;2022-12-18T01:20:32;-3270.70;78.80
49413;DHT22;35493;50.276;9.372;2022-12-18T01:22:59;-3270.70;78.90
49413;DHT22;35493;50.276;9.372;2022-12-18T01:25:28;-3270.60;78.90
49413;DHT22;35493;50.276;9.372;2022-12-18T01:27:55;-3270.60;78.90
49413;DHT22;35493;50.276;9.372;2022-12-18T01:30:24;-3270.60;79.00
49413;DHT22;35493;50.276;9.372;2022-12-18T01:32:53;-3270.60;79.00
49413;DHT22;35493;50.276;9.372;2022-12-18T01:35:21;-3270.60;78.90
49413;DHT22;35493;50.276;9.372;2022-12-18T01:37:48;-3270.60;78.80
49413;DHT22;35493;50.276;9.372;2022-12-18T01:40:14;-3270.60;78.70
49413;DHT22;35493;50.276;9.372;2022-12-18T01:42:42;-3270.60;78.70
49413;DHT22;35493;50.276;9.372;2022-12-18T01:45:27;-3270.50;78.70
49413;DHT22;35493;50.276;9.372;2022-12-18T01:47:57;-3270.50;78.80
49413;DHT22;35493;50.276;9.372;2022-12-18T01:50:27;-3270.60;78.90
49413;DHT22;35493;50.276;9.372;2022-12-18T01:52:58;-3270.50;78.90
49413;DHT22;35493;50.276;9.372;2022-12-18T01:55:27;-3270.50;78.90
49413;DHT22;35493;50.276;9.372;2022-12-18T01:57:58;-3270.60;79.00
49413;DHT22;35493;50.276;9.372;2022-12-18T02:00:28;-3270.60;79.10
49413;DHT22;35493;50.276;9.372;2022-12-18T02:02:57;-3270.50;78.90
49413;DHT22;35493;50.276;9.372;2022-12-18T02:05:34;-3270.50;79.00
49413;DHT22;35493;50.276;9.372;2022-12-18T02:08:09;-3270.50;78.90
49413;DHT22;35493;50.276;9.372;2022-12-18T02:10:45;-3270.60;78.90
49413;DHT22;35493;50.276;9.372;2022-12-18T02:13:19;-3270.50;78.80
49413;DHT22;35493;50.276;9.372;2022-12-18T02:15:53;-3270.40;78.70
49413;DHT22;35493;50.276;9.372;2022-12-18T02:18:27;-3270.40;78.80
49413;DHT22;35493;50.276;9.372;2022-12-18T02:21:00;-3270.40;78.80
49413;DHT22;35493;50.276;9.372;2022-12-18T02:23:45;-3270.40;78.50
49413;DHT22;35493;50.276;9.372;2022-12-18T02:26:21;-3270.30;78.70
49413;DHT22;35493;50.276;9.372;2022-12-18T02:28:53;-3270.30;78.60
49413;DHT22;35493;50.276;9.372;2022-12-18T02:31:25;-3270.30;78.60
49413;DHT22;35493;50.276;9.372;2022-12-18T02:33:53;-3270.40;78.50
49413;DHT22;35493;50.276;9.372;2022-12-18T02:36:23;-3270.40;78.40
49413;DHT22;35493;50.276;9.372;2022-12-18T02:38:52;-3270.20;78.50
49413;DHT22;35493;50.276;9.372;2022-12-18T02:41:22;-3270.30;78.70
49413;DHT22;35493;50.276;9.372;2022-12-18T02:43:56;-3270.30;78.60
49413;DHT22;35493;50.276;9.372;2022-12-18T02:46:31;-3270.30;78.60
49413;DHT22;35493;50.276;9.372;2022-12-18T02:49:12;-3270.30;78.70
49413;DHT22;35493;50.276;9.372;2022-12-18T02:51:50;-3270.20;78.60
49413;DHT22;35493;50.276;9.372;2022-12-18T02:54:27;-3270.30;78.50
49413;DHT22;35493;50.276;9.372;2022-12-18T02:57:02;-3270.30;78.50
49413;DHT22;35493;50.276;9.372;2022-12-18T02:59:39;-3270.20;78.40
49413;DHT22;35493;50.276;9.372;2022-12-18T03:02:16;-3270.20;78.40
49413;DHT22;35493;50.276;9.372;2022-12-18T03:04:48;-3270.20;78.40
49413;DHT22;35493;50.276;9.372;2022-12-18T03:07:20;-3270.20;78.40
49413;DHT22;35493;50.276;9.372;2022-12-18T03:09:50;-3270.20;78.30
49413;DHT22;35493;50.276;9.372;2022-12-18T03:12:21;-3270.10;78.30
49413;DHT22;35493;50.276;9.372;2022-12-18T03:14:59;-3270.10;78.30
49413;DHT22;35493;50.276;9.372;2022-12-18T03:17:31;-3270.10;78.20
49413;DHT22;35493;50.276;9.372;2022-12-18T03:20:03;-3270.00;78.40
49413;DHT22;35493;50.276;9.372;2022-12-18T03:22:33;-3270.10;78.30
49413;DHT22;35493;50.276;9.372;2022-12-18T03:25:05;-3270.10;78.20
49413;DHT22;35493;50.276;9.372;2022-12-18T03:27:37;-3270.10;78.30
49413;DHT22;35493;50.276;9.372;2022-12-18T03:30:10;-3270.10;78.20
49413;DHT22;35493;50.276;9.372;2022-12-18T03:32:41;-3270.00;78.30
49413;DHT22;35493;50.276;9.372;2022-12-18T03:35:10;-3270.00;78.40
49413;DHT22;35493;50.276;9.372;2022-12-18T03:37:38;-3270.00;78.40
49413;DHT22;35493;50.276;9.372;2022-12-18T03:40:08;-3270.00;78.30
49413;DHT22;35493;50.276;9.372;2022-12-18T03:42:44;-3270.00;78.40
49413;DHT22;35493;50.276;9.372;2022-12-18T03:45:18;-3270.00;78.40
49413;DHT22;35493;50.276;9.372;2022-12-18T03:47:56;-3270.00;78.20
49413;DHT22;35493;50.276;9.372;2022-12-18T03:50:29;-3270.00;78.20
49413;DHT22;35493;50.276;9.372;2022-12-18T03:53:07;-3270.00;78.20
49413;DHT22;35493;50.276;9.372;2022-12-18T03:55:36;-3270.00;78.20
49413;DHT22;35493;50.276;9.372;2022-12-18T03:58:07;-3270.00;78.20
49413;DHT22;35493;50.276;9.372;2022-12-18T04:00:56;-3269.90;78.20
49413;DHT22;35493;50.276;9.372;2022-12-18T04:03:27;-3269.90;78.20
49413;DHT22;35493;50.276;9.372;2022-12-18T04:05:59;-3269.90;78.20
49413;DHT22;35493;50.276;9.372;2022-12-18T04:08:29;-3269.90;78.20
49413;DHT22;35493;50.276;9.372;2022-12-18T04:11:03;-3269.90;78.00
49413;DHT22;35493;50.276;9.372;2022-12-18T04:13:36;-3269.80;78.10
49413;DHT22;35493;50.276;9.372;2022-12-18T04:16:07;-3269.90;78.20
49413;DHT22;35493;50.276;9.372;2022-12-18T04:18:37;-3269.90;78.00
49413;DHT22;35493;50.276;9.372;2022-12-18T04:21:04;-3269.80;77.90
49413;DHT22;35493;50.276;9.372;2022-12-18T04:23:32;-3269.80;77.90
49413;DHT22;35493;50.276;9.372;2022-12-18T04:25:59;-3269.80;78.10
49413;DHT22;35493;50.276;9.372;2022-12-18T04:28:47;-3269.90;78.00
49413;DHT22;35493;50.276;9.372;2022-12-18T04:31:15;-3269.90;78.10
49413;DHT22;35493;50.276;9.372;2022-12-18T04:33:42;-3269.80;77.90
49413;DHT22;35493;50.276;9.372;2022-12-18T04:36:09;-3269.80;77.80
49413;DHT22;35493;50.276;9.372;2022-12-18T04:38:39;-3269.80;77.90
49413;DHT22;35493;50.276;9.372;2022-12-18T04:41:14;-3269.80;77.80
49413;DHT22;35493;50.276;9.372;2022-12-18T04:43:43;-3269.80;78.00
49413;DHT22;35493;50.276;9.372;2022-12-18T04:46:11;-3269.80;78.10
49413;DHT22;35493;50.276;9.372;2022-12-18T04:48:38;-3269.70;78.10
49413;DHT22;35493;50.276;9.372;2022-12-18T04:51:05;-3269.80;78.00
49413;DHT22;35493;50.276;9.372;2022-12-18T04:53:33;-3269.70;78.10
49413;DHT22;35493;50.276;9.372;2022-12-18T04:56:05;-3269.70;78.30
49413;DHT22;35493;50.276;9.372;2022-12-18T04:58:32;-3269.70;78.30
49413;DHT22;35493;50.276;9.372;2022-12-18T05:00:59;-3269.70;78.30
49413;DHT22;35493;50.276;9.372;2022-12-18T05:03:30;-3269.70;78.30
49413;DHT22;35493;50.276;9.372;2022-12-18T05:05:57;-3269.70;78.20
49413;DHT22;35493;50.276;9.372;2022-12-18T05:08:24;-3269.70;78.10
49413;DHT22;35493;50.276;9.372;2022-12-18T05:10:58;-3269.70;78.30
49413;DHT22;35493;50.276;9.372;2022-12-18T05:13:25;-3269.70;78.30
49413;DHT22;35493;50.276;9.372;2022-12-18T05:15:52;-3269.70;78.30
49413;DHT22;35493;50.276;9.372;2022-12-18T05:18:20;-3269.70;78.50
49413;DHT22;35493;50.276;9.372;2022-12-18T05:20:49;-3269.60;78.30
49413;DHT22;35493;50.276;9.372;2022-12-18T05:23:16;-3269.70;78.40
49413;DHT22;35493;50.276;9.372;2022-12-18T05:25:47;-3269.70;78.70
49413;DHT22;35493;50.276;9.372;2022-12-18T05:28:16;-3269.70;78.90
49413;DHT22;35493;50.276;9.372;2022-12-18T05:30:47;-3269.80;79.00
49413;DHT22;35493;50.276;9.372;2022-12-18T05:33:14;-3269.80;78.70
49413;DHT22;35493;50.276;9.372;2022-12-18T05:35:41;-3269.90;79.00
49413;DHT22;35493;50.276;9.372;2022-12-18T05:38:10;-3269.90;79.20
49413;DHT22;35493;50.276;9.372;2022-12-18T05:40:37;-3269.90;78.90
49413;DHT22;35493;50.276;9.372;2022-12-18T05:43:04;-3269.90;78.90
49413;DHT22;35493;50.276;9.372;2022-12-18T05:45:31;-3269.90;78.80
49413;DHT22;35493;50.276;9.372;2022-12-18T05:47:57;-3269.80;79.00
49413;DHT22;35493;50.276;9.372;2022-12-18T05:50:24;-3269.70;79.20
49413;DHT22;35493;50.276;9.372;2022-12-18T05:52:51;-3269.70;79.40
49413;DHT22;35493;50.276;9.372;2022-12-18T05:55:19;-3269.80;79.50
49413;DHT22;35493;50.276;9.372;2022-12-18T05:57:46;-3269.80;79.50
49413;DHT22;35493;50.276;9.372;2022-12-18T06:00:14;-3269.80;79.40
49413;DHT22;35493;50.276;9.372;2022-12-18T06:02:41;-3269.80;79.60
49413;DHT22;35493;50.276;9.372;2022-12-18T06:05:08;-3269.80;79.10
49413;DHT22;35493;50.276;9.372;2022-12-18T06:07:36;-3269.90;78.90
49413;DHT22;35493;50.276;9.372;2022-12-18T06:10:03;-3269.80;78.90
49413;DHT22;35493;50.276;9.372;2022-12-18T06:12:32;-3269.80;79.10
49413;DHT22;35493;50.276;9.372;2022-12-18T06:14:59;-3269.80;79.10
49413;DHT22;35493;50.276;9.372;2022-12-18T06:17:27;-3269.80;79.10
49413;DHT22;35493;50.276;9.372;2022-12-18T06:19:55;-3269.70;79.00
49413;DHT22;35493;50.276;9.372;2022-12-18T06:22:22;-3269.70;78.80
49413;DHT22;35493;50.276;9.372;2022-12-18T06:24:49;-3269.80;78.80
49413;DHT22;35493;50.276;9.372;2022-12-18T06:27:16;-3269.70;78.90
49413;DHT22;35493;50.276;9.372;2022-12-18T06:29:44;-3269.80;79.20
49413;DHT22;35493;50.276;9.372;2022-12-18T06:32:11;-3269.80;79.20
49413;DHT22;35493;50.276;9.372;2022-12-18T06:34:38;-3269.70;79.10
49413;DHT22;35493;50.276;9.372;2022-12-18T06:37:05;-3269.70;78.90
49413;DHT22;35493;50.276;9.372;2022-12-18T06:39:32;-3269.70;79.20
49413;DHT22;35493;50.276;9.372;2022-12-18T06:42:03;-3269.80;79.30
49413;DHT22;35493;50.276;9.372;2022-12-18T06:44:30;-3269.70;79.30
49413;DHT22;35493;50.276;9.372;2022-12-18T06:46:58;-3269.80;79.30
49413;DHT22;35493;50.276;9.372;2022-12-18T06:49:25;-3269.80;79.50
49413;DHT22;35493;50.276;9.372;2022-12-18T06:51:51;-3269.90;79.70
49413;DHT22;35493;50.276;9.372;2022-12-18T06:54:18;-3269.80;79.60
49413;DHT22;35493;50.276;9.372;2022-12-18T06:56:45;-3269.90;79.70
49413;DHT22;35493;50.276;9.372;2022-12-18T06:59:13;-3269.90;79.70
49413;DHT22;35493;50.276;9.372;2022-12-18T07:01:40;-3269.90;79.70
49413;DHT22;35493;50.276;9.372;2022-12-18T07:04:09;-3269.90;79.60
49413;DHT22;35493;50.276;9.372;2022-12-18T07:06:36;-3269.90;79.60
49413;DHT22;35493;50.276;9.372;2022-12-18T07:09:03;-3269.80;79.70
49413;DHT22;35493;50.276;9.372;2022-12-18T07:11:32;-3269.90;79.70
49413;DHT22;35493;50.276;9.372;2022-12-18T07:13:59;-3270.00;79.70
49413;DHT22;35493;50.276;9.372;2022-12-18T07:16:26;-3269.90;79.70
49413;DHT22;35493;50.276;9.372;2022-12-18T07:18:54;-3270.00;79.80
49413;DHT22;35493;50.276;9.372;2022-12-18T07:21:24;-3269.90;79.80
49413;DHT22;35493;50.276;9.372;2022-12-18T07:23:51;-3270.00;79.90
49413;DHT22;35493;50.276;9.372;2022-12-18T07:26:20;-3270.00;80.20
49413;DHT22;35493;50.276;9.372;2022-12-18T07:28:47;-3270.10;80.10
49413;DHT22;35493;50.276;9.372;2022-12-18T07:31:16;-3270.10;80.10
49413;DHT22;35493;50.276;9.372;2022-12-18T07:33:45;-3270.10;80.50
49413;DHT22;35493;50.276;9.372;2022-12-18T07:36:13;-3270.10;80.60
49413;DHT22;35493;50.276;9.372;2022-12-18T07:38:41;-3270.20;80.60
49413;DHT22;35493;50.276;9.372;2022-12-18T07:41:10;-3270.20;80.70
49413;DHT22;35493;50.276;9.372;2022-12-18T07:43:39;-3270.20;80.60
49413;DHT22;35493;50.276;9.372;2022-12-18T07:46:07;-3270.20;80.60
49413;DHT22;35493;50.276;9.372;2022-12-18T07:48:34;-3270.30;80.80
49413;DHT22;35493;50.276;9.372;2022-12-18T07:51:02;-3270.30;80.90
49413;DHT22;35493;50.276;9.372;2022-12-18T07:53:30;-3270.40;81.10
49413;DHT22;35493;50.276;9.372;2022-12-18T07:55:59;-3270.40;81.00
49413;DHT22;35493;50.276;9.372;2022-12-18T07:58:28;-3270.40;81.00
49413;DHT22;35493;50.276;9.372;2022-12-18T08:01:02;-3270.40;81.10
49413;DHT22;35493;50.276;9.372;2022-12-18T08:03:29;-3270.40;80.80
49413;DHT22;35493;50.276;9.372;2022-12-18T08:05:59;-3270.40;81.00
49413;DHT22;35493;50.276;9.372;2022-12-18T08:08:26;-3270.40;81.10
49413;DHT22;35493;50.276;9.372;2022-12-18T08:10:53;-3270.50;81.10
49413;DHT22;35493;50.276;9.372;2022-12-18T08:13:21;-3270.50;80.90
49413;DHT22;35493;50.276;9.372;2022-12-18T08:15:56;-3270.50;81.10
49413;DHT22;35493;50.276;9.372;2022-12-18T08:18:23;-3270.50;81.30
49413;DHT22;35493;50.276;9.372;2022-12-18T08:20:51;-3270.60;81.30
49413;DHT22;35493;50.276;9.372;2022-12-18T08:23:18;-3270.60;81.40
49413;DHT22;35493;50.276;9.372;2022-12-18T08:25:45;-3270.60;81.60
49413;DHT22;35493;50.276;9.372;2022-12-18T08:28:12;-3270.60;81.80
49413;DHT22;35493;50.276;9.372;2022-12-18T08:30:43;-3270.60;81.90
49413;DHT22;35493;50.276;9.372;2022-12-18T08:33:10;-3270.70;81.90
49413;DHT22;35493;50.276;9.372;2022-12-18T08:35:36;-3270.70;82.00
49413;DHT22;35493;50.276;9.372;2022-12-18T08:38:04;-3270.80;81.70
49413;DHT22;35493;50.276;9.372;2022-12-18T08:40:31;-3270.90;81.70
49413;DHT22;35493;50.276;9.372;2022-12-18T08:42:57;-3270.90;81.70
49413;DHT22;35493;50.276;9.372;2022-12-18T08:45:43;-3271.00;81.50
49413;DHT22;35493;50.276;9.372;2022-12-18T08:48:10;-3271.10;81.60
49413;DHT22;35493;50.276;9.372;2022-12-18T08:50:37;-3271.10;81.50
49413;DHT22;35493;50.276;9.372;2022-12-18T08:53:04;-3271.10;81.90
49413;DHT22;35493;50.276;9.372;2022-12-18T08:55:31;-3271.10;81.80
49413;DHT22;35493;50.276;9.372;2022-12-18T08:57:57;-3271.20;81.70
49413;DHT22;35493;50.276;9.372;2022-12-18T09:00:25;-3271.30;81.80
49413;DHT22;35493;50.276;9.372;2022-12-18T09:02:53;-3271.30;82.00
49413;DHT22;35493;50.276;9.372;2022-12-18T09:05:20;-3271.30;81.90
49413;DHT22;35493;50.276;9.372;2022-12-18T09:07:47;-3271.40;82.00
49413;DHT22;35493;50.276;9.372;2022-12-18T09:10:14;-3271.40;82.10
49413;DHT22;35493;50.276;9.372;2022-12-18T09:12:41;-3271.40;82.20
49413;DHT22;35493;50.276;9.372;2022-12-18T09:15:09;-3271.40;82.20
49413;DHT22;35493;50.276;9.372;2022-12-18T09:17:36;-3271.50;82.20
49413;DHT22;35493;50.276;9.372;2022-12-18T09:20:05;-3271.50;82.20
49413;DHT22;35493;50.276;9.372;2022-12-18T09:22:32;-3271.60;82.50
49413;DHT22;35493;50.276;9.372;2022-12-18T09:24:59;-3271.60;82.50
49413;DHT22;35493;50.276;9.372;2022-12-18T09:27:26;-3271.60;82.60
49413;DHT22;35493;50.276;9.372;2022-12-18T09:29:53;-3271.70;82.40
49413;DHT22;35493;50.276;9.372;2022-12-18T09:32:21;-3271.70;82.40
49413;DHT22;35493;50.276;9.372;2022-12-18T09:34:48;-3271.80;82.70
49413;DHT22;35493;50.276;9.372;2022-12-18T09:37:16;-3271.80;82.70
49413;DHT22;35493;50.276;9.372;2022-12-18T09:39:43;-3271.80;82.80
49413;DHT22;35493;50.276;9.372;2022-12-18T09:42:16;-3271.80;82.70
49413;DHT22;35493;50.276;9.372;2022-12-18T09:44:48;-3271.90;82.60
49413;DHT22;35493;50.276;9.372;2022-12-18T09:47:19;-3271.90;82.60
49413;DHT22;35493;50.276;9.372;2022-12-18T09:49:51;-3271.90;82.60
49413;DHT22;35493;50.276;9.372;2022-12-18T09:52:23;-3271.90;82.60
49413;DHT22;35493;50.276;9.372;2022-12-18T09:54:54;-3271.90;82.60
49413;DHT22;35493;50.276;9.372;2022-12-18T09:57:24;-3271.90;82.40
49413;DHT22;35493;50.276;9.372;2022-12-18T09:59:54;-3272.00;82.40
49413;DHT22;35493;50.276;9.372;2022-12-18T10:02:23;-3272.00;82.30
49413;DHT22;35493;50.276;9.372;2022-12-18T10:05:00;-3272.00;82.30
49413;DHT22;35493;50.276;9.372;2022-12-18T10:07:37;-3272.00;82.10
49413;DHT22;35493;50.276;9.372;2022-12-18T10:10:13;-3272.10;82.10
49413;DHT22;35493;50.276;9.372;2022-12-18T10:12:52;-3272.00;82.10
49413;DHT22;35493;50.276;9.372;2022-12-18T10:15:26;-3272.10;82.10
49413;DHT22;35493;50.276;9.372;2022-12-18T10:18:00;-3272.10;82.00
49413;DHT22;35493;50.276;9.372;2022-12-18T10:20:34;-3272.10;81.90
49413;DHT22;35493;50.276;9.372;2022-12-18T10:23:08;-3272.10;81.90
49413;DHT22;35493;50.276;9.372;2022-12-18T10:25:50;-3272.10;81.70
49413;DHT22;35493;50.276;9.372;2022-12-18T10:28:20;-3272.10;81.60
49413;DHT22;35493;50.276;9.372;2022-12-18T10:30:48;-3272.10;81.40
49413;DHT22;35493;50.276;9.372;2022-12-18T10:33:17;-3272.10;81.40
49413;DHT22;35493;50.276;9.372;2022-12-18T10:35:45;-3272.10;81.40
49413;DHT22;35493;50.276;9.372;2022-12-18T10:38:25;-3272.10;81.40
49413;DHT22;35493;50.276;9.372;2022-12-18T10:40:55;-3272.20;81.30
49413;DHT22;35493;50.276;9.372;2022-12-18T10:43:25;-3272.20;81.30
49413;DHT22;35493;50.276;9.372;2022-12-18T10:46:13;-3272.20;81.20
49413;DHT22;35493;50.276;9.372;2022-12-18T10:48:50;-3272.10;81.40
49413;DHT22;35493;50.276;9.372;2022-12-18T10:51:23;-3272.10;81.20
49413;DHT22;35493;50.276;9.372;2022-12-18T10:53:57;-3272.10;81.30
49413;DHT22;35493;50.276;9.372;2022-12-18T10:56:26;-3272.10;81.40
49413;DHT22;35493;50.276;9.372;2022-12-18T10:58:59;-3272.10;81.40
49413;DHT22;35493;50.276;9.372;2022-12-18T11:01:27;-3272.10;81.30
49413;DHT22;35493;50.276;9.372;2022-12-18T11:04:04;-3272.10;81.50
49413;DHT22;35493;50.276;9.372;2022-12-18T11:06:34;-3272.20;81.70
49413;DHT22;35493;50.276;9.372;2022-12-18T11:09:04;-3272.20;81.80
49413;DHT22;35493;50.276;9.372;2022-12-18T11:11:32;-3272.30;81.70
49413;DHT22;35493;50.276;9.372;2022-12-18T11:14:02;-3272.30;81.70
49413;DHT22;35493;50.276;9.372;2022-12-18T11:16:34;-3272.30;81.80
49413;DHT22;35493;50.276;9.372;2022-12-18T11:19:19;-3272.30;81.90
49413;DHT22;35493;50.276;9.372;2022-12-18T11:21:48;-3272.30;81.80
49413;DHT22;35493;50.276;9.372;2022-12-18T11:24:27;-3272.30;82.00
49413;DHT22;35493;50.276;9.372;2022-12-18T11:26:55;-3272.40;82.00
49413;DHT22;35493;50.276;9.372;2022-12-18T11:29:24;-3272.40;82.10
49413;DHT22;35493;50.276;9.372;2022-12-18T11:35:02;-3272.50;81.90
49413;DHT22;35493;50.276;9.372;2022-12-18T11:37:31;-3272.60;81.90
49413;DHT22;35493;50.276;9.372;2022-12-18T11:40:05;-3272.60;82.00
49413;DHT22;35493;50.276;9.372;2022-12-18T11:42:38;-3272.60;81.90
49413;DHT22;35493;50.276;9.372;2022-12-18T11:45:24;-3272.70;82.00
49413;DHT22;35493;50.276;9.372;2022-12-18T11:47:56;-3272.70;81.90
49413;DHT22;35493;50.276;9.372;2022-12-18T11:50:26;-3272.70;81.90
49413;DHT22;35493;50.276;9.372;2022-12-18T11:52:56;-3272.80;82.10
49413;DHT22;35493;50.276;9.372;2022-12-18T11:55:28;-3272.80;81.90
49413;DHT22;35493;50.276;9.372;2022-12-18T11:58:03;-3272.80;82.10
49413;DHT22;35493;50.276;9.372;2022-12-18T12:00:35;-3272.90;82.10
49413;DHT22;35493;50.276;9.372;2022-12-18T12:03:27;-3272.90;82.00
49413;DHT22;35493;50.276;9.372;2022-12-18T12:06:10;-3272.90;82.10
49413;DHT22;35493;50.276;9.372;2022-12-18T12:08:50;-3272.90;82.10
49413;DHT22;35493;50.276;9.372;2022-12-18T12:11:23;-3272.90;82.20
49413;DHT22;35493;50.276;9.372;2022-12-18T12:14:04;-3272.90;82.30
49413;DHT22;35493;50.276;9.372;2022-12-18T12:16:39;-3273.00;82.40
49413;DHT22;35493;50.276;9.372;2022-12-18T12:19:31;-3273.10;82.40
49413;DHT22;35493;50.276;9.372;2022-12-18T12:22:06;-3273.10;82.40
49413;DHT22;35493;50.276;9.372;2022-12-18T12:24:44;-3273.10;82.70
49413;DHT22;35493;50.276;9.372;2022-12-18T12:27:21;-3273.10;82.60
49413;DHT22;35493;50.276;9.372;2022-12-18T12:30:00;-3273.10;82.60
49413;DHT22;35493;50.276;9.372;2022-12-18T12:32:42;-3273.20;82.50
49413;DHT22;35493;50.276;9.372;2022-12-18T12:35:22;-3273.20;82.30
49413;DHT22;35493;50.276;9.372;2022-12-18T12:37:58;-3273.20;82.20
49413;DHT22;35493;50.276;9.372;2022-12-18T12:40:28;-3273.30;82.40
49413;DHT22;35493;50.276;9.372;2022-12-18T12:43:00;-3273.30;82.40
49413;DHT22;35493;50.276;9.372;2022-12-18T12:45:44;-3273.30;82.40
49413;DHT22;35493;50.276;9.372;2022-12-18T12:48:19;-3273.30;82.60
49413;DHT22;35493;50.276;9.372;2022-12-18T12:50:48;-3273.40;82.50
49413;DHT22;35493;50.276;9.372;2022-12-18T12:53:23;-3273.40;82.40
49413;DHT22;35493;50.276;9.372;2022-12-18T12:55:52;-3273.40;82.50
49413;DHT22;35493;50.276;9.372;2022-12-18T12:58:26;-3273.50;82.40
49413;DHT22;35493;50.276;9.372;2022-12-18T13:01:07;-3273.50;82.40
49413;DHT22;35493;50.276;9.372;2022-12-18T13:03:43;-3273.50;82.60
49413;DHT22;35493;50.276;9.372;2022-12-18T13:06:18;-3273.50;82.60
49413;DHT22;35493;50.276;9.372;2022-12-18T13:08:55;-3273.50;82.70
49413;DHT22;35493;50.276;9.372;2022-12-18T13:11:44;-3273.50;82.70
49413;DHT22;35493;50.276;9.372;2022-12-18T13:14:32;-3273.50;82.80
49413;DHT22;35493;50.276;9.372;2022-12-18T13:17:27;-3273.50;82.70
49413;DHT22;35493;50.276;9.372;2022-12-18T13:20:10;-3273.50;82.80
49413;DHT22;35493;50.276;9.372;2022-12-18T13:22:40;-3273.50;82.80
49413;DHT22;35493;50.276;9.372;2022-12-18T13:25:28;-3273.50;82.70
49413;DHT22;35493;50.276;9.372;2022-12-18T13:28:08;-3273.50;82.70
49413;DHT22;35493;50.276;9.372;2022-12-18T13:30:50;-3273.60;82.70
49413;DHT22;35493;50.276;9.372;2022-12-18T13:33:47;-3273.60;82.60
49413;DHT22;35493;50.276;9.372;2022-12-18T13:36:25;-3273.60;82.80
49413;DHT22;35493;50.276;9.372;2022-12-18T13:39:11;-3273.60;82.70
49413;DHT22;35493;50.276;9.372;2022-12-18T13:41:38;-3273.60;82.80
49413;DHT22;35493;50.276;9.372;2022-12-18T13:44:12;-3273.60;83.00
49413;DHT22;35493;50.276;9.372;2022-12-18T13:46:45;-3273.60;83.00
49413;DHT22;35493;50.276;9.372;2022-12-18T13:49:22;-3273.60;83.00
49413;DHT22;35493;50.276;9.372;2022-12-18T13:51:51;-3273.60;83.10
49413;DHT22;35493;50.276;9.372;2022-12-18T13:54:20;-3273.60;83.00
49413;DHT22;35493;50.276;9.372;2022-12-18T13:56:48;-3273.60;83.10
49413;DHT22;35493;50.276;9.372;2022-12-18T13:59:18;-3273.70;83.10
49413;DHT22;35493;50.276;9.372;2022-12-18T14:01:49;-3273.60;83.00
49413;DHT22;35493;50.276;9.372;2022-12-18T14:04:20;-3273.60;83.00
49413;DHT22;35493;50.276;9.372;2022-12-18T14:06:53;-3273.60;83.20
49413;DHT22;35493;50.276;9.372;2022-12-18T14:09:24;-3273.60;83.40
49413;DHT22;35493;50.276;9.372;2022-12-18T14:11:52;-3273.60;83.50
49413;DHT22;35493;50.276;9.372;2022-12-18T14:14:42;-3273.60;83.70
49413;DHT22;35493;50.276;9.372;2022-12-18T14:17:12;-3273.60;83.70
49413;DHT22;35493;50.276;9.372;2022-12-18T14:19:42;-3273.60;83.60
49413;DHT22;35493;50.276;9.372;2022-12-18T14:22:15;-3273.60;83.70
49413;DHT22;35493;50.276;9.372;2022-12-18T14:24:43;-3273.60;83.70
49413;DHT22;35493;50.276;9.372;2022-12-18T14:27:21;-3273.70;83.70
49413;DHT22;35493;50.276;9.372;2022-12-18T14:29:49;-3273.70;83.70
49413;DHT22;35493;50.276;9.372;2022-12-18T14:32:19;-3273.70;83.70
49413;DHT22;35493;50.276;9.372;2022-12-18T14:34:47;-3273.70;83.60
49413;DHT22;35493;50.276;9.372;2022-12-18T14:37:15;-3273.70;83.80
49413;DHT22;35493;50.276;9.372;2022-12-18T14:39:53;-3273.70;83.80
49413;DHT22;35493;50.276;9.372;2022-12-18T14:42:20;-3273.70;83.90
49413;DHT22;35493;50.276;9.372;2022-12-18T14:44:47;-3273.70;83.90
49413;DHT22;35493;50.276;9.372;2022-12-18T14:47:15;-3273.70;83.80
49413;DHT22;35493;50.276;9.372;2022-12-18T14:49:43;-3273.70;83.80
49413;DHT22;35493;50.276;9.372;2022-12-18T14:52:22;-3273.70;83.80
49413;DHT22;35493;50.276;9.372;2022-12-18T14:54:50;-3273.80;83.80
49413;DHT22;35493;50.276;9.372;2022-12-18T14:57:22;-3273.80;83.70
49413;DHT22;35493;50.276;9.372;2022-12-18T14:59:50;-3273.80;83.80
49413;DHT22;35493;50.276;9.372;2022-12-18T15:02:21;-3273.80;83.90
49413;DHT22;35493;50.276;9.372;2022-12-18T15:04:59;-3273.80;84.00
49413;DHT22;35493;50.276;9.372;2022-12-18T15:07:38;-3273.80;84.00
49413;DHT22;35493;50.276;9.372;2022-12-18T15:10:11;-3273.80;84.00
49413;DHT22;35493;50.276;9.372;2022-12-18T15:12:40;-3273.80;84.00
49413;DHT22;35493;50.276;9.372;2022-12-18T15:15:46;-3273.80;83.90